| time (UTC) | temp F | wind direction | speed MPH | gust MPH | rain 1hr in | rain 24hr in | rain mn in | humidity % | barometer mb |
| 20260902120004 | 76 | 246 | 6.0 | 7.0 | 0.00 | 0.00 | 0.00 | 43 | 1021.6 |
| 20260902115004 | 75 | 248 | 2.0 | 6.0 | 0.00 | 0.00 | 0.00 | 44 | 1021.6 |
| 20260902114004 | 75 | 249 | 6.0 | 10.0 | 0.00 | 0.00 | 0.00 | 44 | 1021.8 |
| 20260902113004 | 74 | 252 | 2.0 | 5.0 | 0.00 | 0.00 | 0.00 | 47 | 1021.9 |
| 20260902112006 | 74 | 268 | 3.0 | 4.0 | 0.00 | 0.00 | 0.00 | 47 | 1021.9 |
| 20260902111004 | 73 | 309 | 3.0 | 4.0 | 0.00 | 0.00 | 0.00 | 47 | 1022.0 |
| 20260902110007 | 73 | 265 | 2.0 | 3.0 | 0.00 | 0.00 | 0.00 | 48 | 1022.3 |
| 20260902105019 | 75 | 238 | 7.0 | 8.0 | 0.00 | 0.00 | 0.00 | 46 | 1022.2 |
| 20260902104004 | 72 | 224 | 0.0 | 4.0 | 0.00 | 0.00 | 0.00 | 49 | 1022.5 |
| 20260902103004 | 72 | 227 | 1.0 | 3.0 | 0.00 | 0.00 | 0.00 | 52 | 1022.2 |
| 20260902102004 | 72 | 225 | 4.0 | 4.0 | 0.00 | 0.00 | 0.00 | 52 | 1022.5 |
| 20260902101005 | 72 | 252 | 3.0 | 9.0 | 0.00 | 0.00 | 0.00 | 53 | 1022.6 |
| 20260902100006 | 72 | 346 | 4.0 | 6.0 | 0.00 | 0.00 | 0.00 | 54 | 1022.7 |
| 20260902095004 | 71 | 226 | 2.0 | 3.0 | 0.00 | 0.00 | 0.00 | 57 | 1022.7 |
| 20260902094004 | 70 | 247 | 1.0 | 5.0 | 0.00 | 0.00 | 0.00 | 59 | 1022.8 |
| 20260902093021 | 68 | 113 | 3.0 | 3.0 | 0.00 | 0.00 | 0.00 | 62 | 1023.0 |
| 20260902092021 | 66 | 100 | 2.0 | 3.0 | 0.00 | 0.00 | 0.00 | 65 | 1022.8 |
| 20260902091004 | 66 | 116 | 3.0 | 3.0 | 0.00 | 0.00 | 0.00 | 64 | 1022.8 |
| 20260902090005 | 64 | 87 | 1.0 | 2.0 | 0.00 | 0.00 | 0.00 | 67 | 1022.9 |
| 20260902085004 | 66 | 108 | 1.0 | 4.0 | 0.00 | 0.00 | 0.00 | 65 | 1022.8 |
| 20260902084006 | 64 | 113 | 1.0 | 2.0 | 0.00 | 0.00 | 0.00 | 66 | 1022.7 |
| 20260902083019 | 66 | 109 | 3.0 | 5.0 | 0.00 | 0.00 | 0.00 | 61 | 1022.6 |
| 20260902082004 | 65 | 74 | 2.0 | 2.0 | 0.00 | 0.00 | 0.00 | 65 | 1022.8 |
| 20260902081005 | 64 | 118 | 0.0 | 2.0 | 0.00 | 0.00 | 0.00 | 68 | 1022.6 |
| 20260902080007 | 64 | 88 | 2.0 | 3.0 | 0.00 | 0.00 | 0.00 | 69 | 1022.5 |
| 20260902075004 | 63 | 89 | 1.0 | 2.0 | 0.00 | 0.00 | 0.00 | 69 | 1022.8 |
| 20260902074004 | 61 | 96 | 2.0 | 4.0 | 0.00 | 0.00 | 0.00 | 74 | 1023.0 |
| 20260902073004 | 62 | 111 | 1.0 | 2.0 | 0.00 | 0.00 | 0.00 | 70 | 1022.5 |
| 20260902072005 | 58 | 292 | 2.0 | 2.0 | 0.00 | 0.00 | 0.00 | 81 | 1023.1 |
| 20260902071005 | 59 | 273 | 0.0 | 1.0 | 0.00 | 0.00 | 0.00 | 79 | 1023.1 |
| 20260902070006 | 60 | 275 | 1.0 | 1.0 | 0.00 | 0.00 | 0.00 | 79 | 1023.0 |
| 20260902065019 | 60 | 111 | 0.0 | 2.0 | 0.00 | 0.00 | 0.00 | 78 | 1022.9 |
| 20260902064004 | 59 | 310 | 1.0 | 2.0 | 0.00 | 0.00 | 0.00 | 80 | 1022.8 |
| 20260902063004 | 57 | 319 | 0.0 | 1.0 | 0.00 | 0.00 | 0.00 | 84 | 1022.8 |
| 20260902062019 | 58 | 109 | 0.0 | 2.0 | 0.00 | 0.00 | 0.00 | 81 | 1022.9 |
| 20260902061004 | 58 | 333 | 0.0 | 2.0 | 0.00 | 0.00 | 0.00 | 82 | 1022.8 |
| 20260902060005 | 57 | 50 | 0.0 | 2.0 | 0.00 | 0.00 | 0.00 | 81 | 1022.9 |
| 20260902055004 | 56 | 224 | 1.0 | 1.0 | 0.00 | 0.00 | 0.00 | 87 | 1022.7 |
| 20260902054004 | 56 | 117 | 0.0 | 2.0 | 0.00 | 0.00 | 0.00 | 86 | 1022.6 |
| 20260902053004 | 57 | 224 | 0.0 | 0.0 | 0.00 | 0.00 | 0.00 | 85 | 1022.5 |
| 20260902052004 | 57 | 43 | 0.0 | 1.0 | 0.00 | 0.00 | 0.00 | 85 | 1022.3 |
| 20260902051004 | 56 | 135 | 0.0 | 0.0 | 0.00 | 0.00 | 0.00 | 87 | 1022.2 |
| 20260902050019 | 55 | 293 | 0.0 | 0.0 | 0.00 | 0.00 | 0.00 | 89 | 1022.3 |
| 20260902045022 | 55 | 315 | 0.0 | 1.0 | 0.00 | 0.00 | 0.00 | 89 | 1022.1 |
| 20260902044006 | 55 | 86 | 0.0 | 1.0 | 0.00 | 0.00 | 0.00 | 88 | 1022.2 |
| 20260902043004 | 56 | 230 | 0.0 | 0.0 | 0.00 | 0.00 | 0.00 | 87 | 1022.1 |
| 20260902042004 | 55 | 243 | 0.0 | 2.0 | 0.00 | 0.00 | 0.00 | 89 | 1022.3 |
| 20260902041006 | 55 | 202 | 0.0 | 0.0 | 0.00 | 0.00 | 0.00 | 86 | 1021.9 |
| 20260902040004 | 56 | 62 | 0.0 | 2.0 | 0.00 | 0.00 | 0.00 | 84 | 1022.0 |
| 20260902035007 | 56 | 242 | 0.0 | 0.0 | 0.00 | 0.00 | 0.00 | 84 | 1021.9 |
| 20260902034005 | 56 | 109 | 0.0 | 1.0 | 0.00 | 0.00 | 0.00 | 83 | 1021.8 |
| 20260902033004 | 57 | 72 | 0.0 | 2.0 | 0.00 | 0.00 | 0.00 | 83 | 1021.8 |
| 20260902032007 | 57 | 67 | 0.0 | 0.0 | 0.00 | 0.00 | 0.00 | 82 | 1021.9 |
| 20260902031005 | 57 | 60 | 0.0 | 1.0 | 0.00 | 0.00 | 0.00 | 81 | 1021.8 |
| 20260902030007 | 57 | 205 | 0.0 | 0.0 | 0.00 | 0.00 | 0.00 | 80 | 1021.8 |
| 20260902025019 | 58 | 230 | 0.0 | 0.0 | 0.00 | 0.00 | 0.00 | 82 | 1022.0 |
| 20260902024004 | 58 | 154 | 0.0 | 0.0 | 0.00 | 0.00 | 0.00 | 81 | 1021.7 |
| 20260902023004 | 58 | 49 | 0.0 | 0.0 | 0.00 | 0.00 | 0.00 | 81 | 1021.8 |
| 20260902022004 | 58 | 49 | 0.0 | 0.0 | 0.00 | 0.00 | 0.00 | 81 | 1021.8 |
| 20260902021004 | 58 | 135 | 0.0 | 0.0 | 0.00 | 0.00 | 0.00 | 79 | 1021.9 |
| 20260902020004 | 58 | 50 | 0.0 | 1.0 | 0.00 | 0.00 | 0.00 | 79 | 1022.3 |
| 20260902015004 | 58 | 62 | 0.0 | 1.0 | 0.00 | 0.00 | 0.00 | 78 | 1022.0 |
| 20260902014019 | 58 | 60 | 0.0 | 1.0 | 0.00 | 0.00 | 0.00 | 78 | 1021.8 |
| 20260902013004 | 57 | 245 | 1.0 | 2.0 | 0.00 | 0.00 | 0.00 | 80 | 1022.1 |
| 20260902012004 | 57 | 129 | 0.0 | 0.0 | 0.00 | 0.00 | 0.00 | 78 | 1022.0 |
| 20260902011004 | 57 | 249 | 0.0 | 1.0 | 0.00 | 0.00 | 0.00 | 78 | 1022.0 |
| 20260902010008 | 58 | 122 | 0.0 | 0.0 | 0.00 | 0.00 | 0.00 | 77 | 1022.3 |
| 20260902005004 | 58 | 55 | 0.0 | 2.0 | 0.00 | 0.00 | 0.00 | 78 | 1022.3 |
| 20260902004004 | 58 | 224 | 0.0 | 0.0 | 0.00 | 0.00 | 0.00 | 77 | 1022.3 |
| 20260902003004 | 59 | 62 | 0.0 | 2.0 | 0.00 | 0.00 | 0.00 | 77 | 1022.3 |
| 20260902002004 | 59 | 53 | 1.0 | 2.0 | 0.00 | 0.00 | 0.00 | 77 | 1022.3 |
| 20260902001004 | 59 | 52 | 0.0 | 1.0 | 0.00 | 0.00 | 0.00 | 77 | 1022.1 |
| 20260902000004 | 60 | 33 | 2.0 | 2.0 | 0.00 | 0.00 | 0.00 | 74 | 1022.2 |
| 20260901235005 | 61 | 52 | 0.0 | 1.0 | 0.00 | 0.00 | 0.00 | 72 | 1022.0 |
| 20260901234005 | 60 | 291 | 0.0 | 0.0 | 0.00 | 0.00 | 0.00 | 72 | 1022.2 |
| 20260901233004 | 60 | 318 | 2.0 | 2.0 | 0.00 | 0.00 | 0.00 | 73 | 1022.1 |
| 20260901232006 | 61 | 89 | 0.0 | 0.0 | 0.00 | 0.00 | 0.00 | 72 | 1022.2 |
| 20260901231004 | 61 | 48 | 0.0 | 2.0 | 0.00 | 0.00 | 0.00 | 69 | 1022.0 |
| 20260901230004 | 61 | 325 | 0.0 | 1.0 | 0.00 | 0.00 | 0.00 | 75 | 1022.1 |
| 20260901225004 | 61 | 253 | 0.0 | 0.0 | 0.00 | 0.00 | 0.00 | 75 | 1022.2 |
| 20260901224004 | 61 | 249 | 2.0 | 2.0 | 0.00 | 0.00 | 0.00 | 72 | 1022.1 |
| 20260901223004 | 62 | 106 | 0.0 | 1.0 | 0.00 | 0.00 | 0.00 | 73 | 1022.2 |
| 20260901222019 | 62 | 218 | 0.0 | 1.0 | 0.00 | 0.00 | 0.00 | 75 | 1022.1 |
| 20260901221004 | 62 | 232 | 0.0 | 1.0 | 0.00 | 0.00 | 0.00 | 68 | 1022.2 |
| 20260901220006 | 62 | 42 | 0.0 | 2.0 | 0.00 | 0.00 | 0.00 | 66 | 1022.2 |
| 20260901215021 | 62 | 44 | 0.0 | 0.0 | 0.00 | 0.00 | 0.00 | 66 | 1022.1 |
| 20260901214004 | 62 | 48 | 0.0 | 1.0 | 0.00 | 0.00 | 0.00 | 66 | 1022.2 |
| 20260901213004 | 62 | 37 | 0.0 | 1.0 | 0.00 | 0.00 | 0.00 | 66 | 1022.5 |
| 20260901212019 | 63 | 227 | 0.0 | 2.0 | 0.00 | 0.00 | 0.00 | 66 | 1022.3 |
| 20260901211004 | 63 | 221 | 0.0 | 1.0 | 0.00 | 0.00 | 0.00 | 66 | 1022.4 |
| 20260901210004 | 63 | 89 | 0.0 | 1.0 | 0.00 | 0.00 | 0.00 | 63 | 1022.4 |
| 20260901205004 | 64 | 65 | 0.0 | 0.0 | 0.00 | 0.00 | 0.00 | 64 | 1022.2 |
| 20260901204004 | 64 | 81 | 0.0 | 2.0 | 0.00 | 0.00 | 0.00 | 61 | 1022.2 |
| 20260901203019 | 64 | 224 | 0.0 | 2.0 | 0.00 | 0.00 | 0.00 | 62 | 1022.3 |
| 20260901202019 | 64 | 221 | 2.0 | 3.0 | 0.00 | 0.00 | 0.00 | 62 | 1022.2 |
| 20260901201004 | 64 | 160 | 0.0 | 2.0 | 0.00 | 0.00 | 0.00 | 62 | 1022.1 |
| 20260901200004 | 65 | 222 | 2.0 | 3.0 | 0.00 | 0.00 | 0.00 | 61 | 1022.3 |
| 20260901195004 | 65 | 231 | 1.0 | 4.0 | 0.00 | 0.00 | 0.00 | 59 | 1022.1 |
| 20260901194006 | 65 | 187 | 0.0 | 1.0 | 0.00 | 0.00 | 0.00 | 61 | 1022.3 |
| 20260901193019 | 65 | 228 | 2.0 | 2.0 | 0.00 | 0.00 | 0.00 | 60 | 1022.2 |
| 20260901192019 | 65 | 225 | 3.0 | 3.0 | 0.00 | 0.00 | 0.00 | 61 | 1022.3 |
| 20260901191004 | 66 | 219 | 1.0 | 2.0 | 0.00 | 0.00 | 0.00 | 60 | 1022.3 |
| 20260901190004 | 66 | 220 | 2.0 | 4.0 | 0.00 | 0.00 | 0.00 | 61 | 1022.3 |
| 20260901185004 | 66 | 221 | 2.0 | 3.0 | 0.00 | 0.00 | 0.00 | 61 | 1022.0 |
| 20260901184004 | 66 | 225 | 2.0 | 4.0 | 0.00 | 0.00 | 0.00 | 60 | 1022.0 |
| 20260901183004 | 67 | 225 | 2.0 | 4.0 | 0.00 | 0.00 | 0.00 | 59 | 1021.9 |
| 20260901182004 | 67 | 230 | 4.0 | 4.0 | 0.00 | 0.00 | 0.00 | 59 | 1021.9 |
| 20260901181004 | 68 | 233 | 4.0 | 4.0 | 0.00 | 0.00 | 0.00 | 57 | 1021.9 |
| 20260901180004 | 69 | 228 | 3.0 | 4.0 | 0.00 | 0.00 | 0.00 | 56 | 1021.5 |
| 20260901175005 | 70 | 224 | 1.0 | 3.0 | 0.00 | 0.00 | 0.00 | 54 | 1021.6 |
| 20260901174004 | 69 | 226 | 1.0 | 4.0 | 0.00 | 0.00 | 0.00 | 57 | 1021.2 |
| 20260901173004 | 70 | 231 | 2.0 | 4.0 | 0.00 | 0.00 | 0.00 | 56 | 1021.6 |
| 20260901172004 | 71 | 223 | 2.0 | 4.0 | 0.00 | 0.00 | 0.00 | 55 | 1021.6 |
| 20260901171004 | 72 | 223 | 2.0 | 3.0 | 0.00 | 0.00 | 0.00 | 54 | 1021.5 |
| 20260901170004 | 73 | 262 | 3.0 | 4.0 | 0.00 | 0.00 | 0.00 | 50 | 1021.6 |
| 20260901165005 | 73 | 309 | 2.0 | 3.0 | 0.00 | 0.00 | 0.00 | 47 | 1021.4 |
| 20260901164004 | 74 | 277 | 2.0 | 3.0 | 0.00 | 0.00 | 0.00 | 47 | 1021.7 |
| 20260901163005 | 73 | 322 | 1.0 | 2.0 | 0.00 | 0.00 | 0.00 | 45 | 1021.4 |
| 20260901162004 | 74 | 285 | 0.0 | 4.0 | 0.00 | 0.00 | 0.00 | 45 | 1021.3 |
| 20260901161019 | 74 | 307 | 2.0 | 3.0 | 0.00 | 0.00 | 0.00 | 44 | 1021.4 |
| 20260901160004 | 74 | 294 | 3.0 | 4.0 | 0.00 | 0.00 | 0.00 | 44 | 1021.5 |
| 20260901155004 | 74 | 299 | 3.0 | 5.0 | 0.00 | 0.00 | 0.00 | 44 | 1021.6 |
| 20260901154004 | 74 | 317 | 2.0 | 4.0 | 0.00 | 0.00 | 0.00 | 43 | 1021.5 |
| 20260901153004 | 74 | 261 | 1.0 | 3.0 | 0.00 | 0.00 | 0.00 | 43 | 1021.5 |
| 20260901152019 | 74 | 287 | 3.0 | 5.0 | 0.00 | 0.00 | 0.00 | 43 | 1021.4 |
| 20260901151006 | 74 | 301 | 1.0 | 4.0 | 0.00 | 0.00 | 0.00 | 44 | 1021.3 |
| 20260901150004 | 74 | 325 | 2.0 | 5.0 | 0.00 | 0.00 | 0.00 | 44 | 1021.3 |
| 20260901145004 | 74 | 311 | 2.0 | 4.0 | 0.00 | 0.00 | 0.00 | 42 | 1021.4 |
| 20260901144004 | 74 | 271 | 3.0 | 4.0 | 0.00 | 0.00 | 0.00 | 42 | 1021.2 |
| 20260901143004 | 76 | 229 | 0.0 | 3.0 | 0.00 | 0.00 | 0.00 | 42 | 1021.2 |
| 20260901142004 | 74 | 324 | 2.0 | 2.0 | 0.00 | 0.00 | 0.00 | 43 | 1021.5 |
| 20260901141004 | 73 | 290 | 3.0 | 4.0 | 0.00 | 0.00 | 0.00 | 45 | 1021.3 |
| 20260901140019 | 72 | 323 | 1.0 | 3.0 | 0.00 | 0.00 | 0.00 | 45 | 1021.5 |
| 20260901135004 | 72 | 310 | 4.0 | 5.0 | 0.00 | 0.00 | 0.00 | 46 | 1021.8 |
| 20260901134019 | 74 | 257 | 5.0 | 6.0 | 0.00 | 0.00 | 0.00 | 46 | 1021.5 |
| 20260901133004 | 74 | 278 | 4.0 | 7.0 | 0.00 | 0.00 | 0.00 | 46 | 1021.5 |
| 20260901132019 | 73 | 130 | 5.0 | 5.0 | 0.00 | 0.00 | 0.00 | 48 | 1021.8 |
| 20260901131004 | 73 | 316 | 2.0 | 4.0 | 0.00 | 0.00 | 0.00 | 48 | 1021.7 |
| 20260901130019 | 74 | 304 | 4.0 | 6.0 | 0.00 | 0.00 | 0.00 | 46 | 1021.8 |
| 20260901125005 | 73 | 307 | 2.0 | 6.0 | 0.00 | 0.00 | 0.00 | 47 | 1021.9 |
| 20260901124019 | 72 | 258 | 2.0 | 6.0 | 0.00 | 0.00 | 0.00 | 49 | 1022.2 |
| 20260901123019 | 72 | 246 | 0.0 | 4.0 | 0.00 | 0.00 | 0.00 | 50 | 1022.1 |
| 20260901122004 | 71 | 114 | 2.0 | 3.0 | 0.00 | 0.00 | 0.00 | 49 | 1022.2 |
| 20260901121004 | 71 | 307 | 3.0 | 5.0 | 0.00 | 0.00 | 0.00 | 51 | 1022.2 |